sensor_id;sensor_type;location;lat;lon;timestamp;P1;durP1;ratioP1;P2;durP2;ratioP2
4704;SDS011;2366;51.332;6.610;2023-02-08T00:00:48;13.70;;;9.55;;
4704;SDS011;2366;51.332;6.610;2023-02-08T00:03:13;10.10;;;8.10;;
4704;SDS011;2366;51.332;6.610;2023-02-08T00:05:39;19.47;;;11.73;;
4704;SDS011;2366;51.332;6.610;2023-02-08T00:08:04;19.33;;;9.87;;
4704;SDS011;2366;51.332;6.610;2023-02-08T00:10:30;17.20;;;8.77;;
4704;SDS011;2366;51.332;6.610;2023-02-08T00:12:55;13.33;;;8.93;;
4704;SDS011;2366;51.332;6.610;2023-02-08T00:15:21;19.63;;;10.37;;
4704;SDS011;2366;51.332;6.610;2023-02-08T00:17:46;20.93;;;10.13;;
4704;SDS011;2366;51.332;6.610;2023-02-08T00:20:12;12.40;;;7.70;;
4704;SDS011;2366;51.332;6.610;2023-02-08T00:22:37;14.33;;;10.10;;
4704;SDS011;2366;51.332;6.610;2023-02-08T00:25:04;12.87;;;8.20;;
4704;SDS011;2366;51.332;6.610;2023-02-08T00:27:30;13.27;;;8.07;;
4704;SDS011;2366;51.332;6.610;2023-02-08T00:29:55;16.17;;;9.13;;
4704;SDS011;2366;51.332;6.610;2023-02-08T00:32:20;14.93;;;9.87;;
4704;SDS011;2366;51.332;6.610;2023-02-08T00:34:46;9.97;;;8.63;;
4704;SDS011;2366;51.332;6.610;2023-02-08T00:37:11;14.07;;;8.97;;
4704;SDS011;2366;51.332;6.610;2023-02-08T00:39:36;18.73;;;9.90;;
4704;SDS011;2366;51.332;6.610;2023-02-08T00:42:02;15.30;;;8.77;;
4704;SDS011;2366;51.332;6.610;2023-02-08T00:44:27;13.03;;;9.27;;
4704;SDS011;2366;51.332;6.610;2023-02-08T00:46:53;21.37;;;11.17;;
4704;SDS011;2366;51.332;6.610;2023-02-08T00:49:18;12.80;;;8.83;;
4704;SDS011;2366;51.332;6.610;2023-02-08T00:51:44;13.57;;;8.70;;
4704;SDS011;2366;51.332;6.610;2023-02-08T00:54:13;14.23;;;9.53;;
4704;SDS011;2366;51.332;6.610;2023-02-08T00:56:40;13.05;;;8.02;;
4704;SDS011;2366;51.332;6.610;2023-02-08T00:59:05;16.60;;;9.83;;
4704;SDS011;2366;51.332;6.610;2023-02-08T01:01:30;18.60;;;10.60;;
4704;SDS011;2366;51.332;6.610;2023-02-08T01:03:56;13.47;;;8.47;;
4704;SDS011;2366;51.332;6.610;2023-02-08T01:06:21;13.53;;;7.47;;
4704;SDS011;2366;51.332;6.610;2023-02-08T01:08:47;10.03;;;8.30;;
4704;SDS011;2366;51.332;6.610;2023-02-08T01:11:15;10.23;;;6.83;;
4704;SDS011;2366;51.332;6.610;2023-02-08T01:13:44;12.30;;;7.75;;
4704;SDS011;2366;51.332;6.610;2023-02-08T01:16:11;11.83;;;8.37;;
4704;SDS011;2366;51.332;6.610;2023-02-08T01:18:38;16.10;;;8.82;;
4704;SDS011;2366;51.332;6.610;2023-02-08T01:21:05;13.18;;;8.55;;
4704;SDS011;2366;51.332;6.610;2023-02-08T01:23:32;13.20;;;8.63;;
4704;SDS011;2366;51.332;6.610;2023-02-08T01:25:58;13.90;;;9.80;;
4704;SDS011;2366;51.332;6.610;2023-02-08T01:28:23;19.13;;;8.63;;
4704;SDS011;2366;51.332;6.610;2023-02-08T01:30:49;11.83;;;8.00;;
4704;SDS011;2366;51.332;6.610;2023-02-08T01:33:14;15.80;;;9.67;;
4704;SDS011;2366;51.332;6.610;2023-02-08T01:35:39;18.10;;;8.90;;
4704;SDS011;2366;51.332;6.610;2023-02-08T01:38:05;14.27;;;8.03;;
4704;SDS011;2366;51.332;6.610;2023-02-08T01:40:30;13.87;;;8.40;;
4704;SDS011;2366;51.332;6.610;2023-02-08T01:42:55;21.13;;;8.73;;
4704;SDS011;2366;51.332;6.610;2023-02-08T01:45:30;14.87;;;8.37;;
4704;SDS011;2366;51.332;6.610;2023-02-08T01:47:57;16.15;;;9.90;;
4704;SDS011;2366;51.332;6.610;2023-02-08T01:50:30;36.20;;;10.35;;
4704;SDS011;2366;51.332;6.610;2023-02-08T01:52:59;14.57;;;8.43;;
4704;SDS011;2366;51.332;6.610;2023-02-08T01:55:29;17.75;;;9.02;;
4704;SDS011;2366;51.332;6.610;2023-02-08T01:57:58;16.85;;;10.82;;
4704;SDS011;2366;51.332;6.610;2023-02-08T02:00:27;14.85;;;9.00;;
4704;SDS011;2366;51.332;6.610;2023-02-08T02:02:53;11.70;;;7.53;;
4704;SDS011;2366;51.332;6.610;2023-02-08T02:05:21;16.08;;;8.73;;
4704;SDS011;2366;51.332;6.610;2023-02-08T02:07:50;9.45;;;7.45;;
4704;SDS011;2366;51.332;6.610;2023-02-08T02:10:20;19.33;;;8.50;;
4704;SDS011;2366;51.332;6.610;2023-02-08T02:12:54;28.67;;;8.77;;
4704;SDS011;2366;51.332;6.610;2023-02-08T02:15:22;13.90;;;8.65;;
4704;SDS011;2366;51.332;6.610;2023-02-08T02:17:47;10.13;;;8.03;;
4704;SDS011;2366;51.332;6.610;2023-02-08T02:20:15;13.40;;;8.23;;
4704;SDS011;2366;51.332;6.610;2023-02-08T02:23:12;19.92;;;8.93;;
4704;SDS011;2366;51.332;6.610;2023-02-08T02:30:52;13.40;;;8.13;;
4704;SDS011;2366;51.332;6.610;2023-02-08T02:33:26;16.40;;;10.00;;
4704;SDS011;2366;51.332;6.610;2023-02-08T02:41:55;19.55;;;8.80;;
4704;SDS011;2366;51.332;6.610;2023-02-08T02:47:39;16.85;;;8.07;;
4704;SDS011;2366;51.332;6.610;2023-02-08T02:50:33;14.82;;;9.02;;
4704;SDS011;2366;51.332;6.610;2023-02-08T02:53:06;14.70;;;8.45;;
4704;SDS011;2366;51.332;6.610;2023-02-08T02:55:42;17.27;;;9.05;;
4704;SDS011;2366;51.332;6.610;2023-02-08T02:58:11;15.35;;;10.52;;
4704;SDS011;2366;51.332;6.610;2023-02-08T03:00:40;12.13;;;8.35;;
4704;SDS011;2366;51.332;6.610;2023-02-08T03:03:06;13.43;;;8.50;;
4704;SDS011;2366;51.332;6.610;2023-02-08T03:05:38;20.20;;;10.93;;
4704;SDS011;2366;51.332;6.610;2023-02-08T03:14:00;18.88;;;9.30;;
4704;SDS011;2366;51.332;6.610;2023-02-08T03:16:51;13.45;;;8.57;;
4704;SDS011;2366;51.332;6.610;2023-02-08T03:19:38;12.20;;;7.15;;
4704;SDS011;2366;51.332;6.610;2023-02-08T03:22:22;18.83;;;9.90;;
4704;SDS011;2366;51.332;6.610;2023-02-08T03:25:04;15.48;;;9.18;;
4704;SDS011;2366;51.332;6.610;2023-02-08T03:27:34;14.15;;;8.52;;
4704;SDS011;2366;51.332;6.610;2023-02-08T03:30:11;13.45;;;9.25;;
4704;SDS011;2366;51.332;6.610;2023-02-08T03:32:42;17.20;;;9.85;;
4704;SDS011;2366;51.332;6.610;2023-02-08T03:38:03;12.93;;;8.13;;
4704;SDS011;2366;51.332;6.610;2023-02-08T03:43:06;15.07;;;9.52;;
4704;SDS011;2366;51.332;6.610;2023-02-08T03:45:41;14.60;;;8.52;;
4704;SDS011;2366;51.332;6.610;2023-02-08T03:48:13;15.55;;;8.65;;
4704;SDS011;2366;51.332;6.610;2023-02-08T03:50:42;13.52;;;8.25;;
4704;SDS011;2366;51.332;6.610;2023-02-08T03:53:14;11.20;;;7.00;;
4704;SDS011;2366;51.332;6.610;2023-02-08T03:55:42;17.13;;;9.10;;
4704;SDS011;2366;51.332;6.610;2023-02-08T03:58:21;14.57;;;9.32;;
4704;SDS011;2366;51.332;6.610;2023-02-08T04:00:54;14.25;;;8.90;;
4704;SDS011;2366;51.332;6.610;2023-02-08T04:03:24;13.18;;;8.68;;
4704;SDS011;2366;51.332;6.610;2023-02-08T04:05:52;14.32;;;8.90;;
4704;SDS011;2366;51.332;6.610;2023-02-08T04:08:18;16.05;;;8.43;;
4704;SDS011;2366;51.332;6.610;2023-02-08T04:10:44;11.10;;;7.80;;
4704;SDS011;2366;51.332;6.610;2023-02-08T04:13:10;12.25;;;8.52;;
4704;SDS011;2366;51.332;6.610;2023-02-08T04:15:36;12.57;;;9.40;;
4704;SDS011;2366;51.332;6.610;2023-02-08T04:18:01;14.13;;;8.83;;
4704;SDS011;2366;51.332;6.610;2023-02-08T04:20:27;23.50;;;10.97;;
4704;SDS011;2366;51.332;6.610;2023-02-08T04:22:52;14.27;;;8.57;;
4704;SDS011;2366;51.332;6.610;2023-02-08T04:25:17;15.57;;;8.73;;
4704;SDS011;2366;51.332;6.610;2023-02-08T04:27:43;14.87;;;9.07;;
4704;SDS011;2366;51.332;6.610;2023-02-08T04:30:08;11.90;;;8.43;;
4704;SDS011;2366;51.332;6.610;2023-02-08T04:32:34;19.20;;;9.75;;
4704;SDS011;2366;51.332;6.610;2023-02-08T04:35:00;14.87;;;8.63;;
4704;SDS011;2366;51.332;6.610;2023-02-08T04:37:25;17.90;;;9.67;;
4704;SDS011;2366;51.332;6.610;2023-02-08T04:39:50;13.40;;;9.07;;
4704;SDS011;2366;51.332;6.610;2023-02-08T04:42:16;15.90;;;10.60;;
4704;SDS011;2366;51.332;6.610;2023-02-08T04:44:41;13.77;;;9.93;;
4704;SDS011;2366;51.332;6.610;2023-02-08T04:47:06;13.20;;;9.20;;
4704;SDS011;2366;51.332;6.610;2023-02-08T04:49:32;14.60;;;9.37;;
4704;SDS011;2366;51.332;6.610;2023-02-08T04:51:57;27.23;;;10.40;;
4704;SDS011;2366;51.332;6.610;2023-02-08T04:54:23;17.27;;;8.77;;
4704;SDS011;2366;51.332;6.610;2023-02-08T04:56:48;18.30;;;7.83;;
4704;SDS011;2366;51.332;6.610;2023-02-08T04:59:14;12.93;;;9.03;;
4704;SDS011;2366;51.332;6.610;2023-02-08T05:01:39;14.50;;;8.57;;
4704;SDS011;2366;51.332;6.610;2023-02-08T05:04:05;15.63;;;8.53;;
4704;SDS011;2366;51.332;6.610;2023-02-08T05:06:30;12.60;;;9.60;;
4704;SDS011;2366;51.332;6.610;2023-02-08T05:08:55;11.40;;;8.70;;
4704;SDS011;2366;51.332;6.610;2023-02-08T05:11:21;17.43;;;10.43;;
4704;SDS011;2366;51.332;6.610;2023-02-08T05:13:48;22.23;;;8.20;;
4704;SDS011;2366;51.332;6.610;2023-02-08T05:16:14;12.52;;;9.20;;
4704;SDS011;2366;51.332;6.610;2023-02-08T05:18:40;17.60;;;9.63;;
4704;SDS011;2366;51.332;6.610;2023-02-08T05:21:05;21.03;;;10.13;;
4704;SDS011;2366;51.332;6.610;2023-02-08T05:23:30;14.83;;;8.63;;
4704;SDS011;2366;51.332;6.610;2023-02-08T05:25:56;16.30;;;8.90;;
4704;SDS011;2366;51.332;6.610;2023-02-08T05:28:22;16.70;;;9.50;;
4704;SDS011;2366;51.332;6.610;2023-02-08T05:30:47;27.33;;;10.00;;
4704;SDS011;2366;51.332;6.610;2023-02-08T05:33:13;16.07;;;8.50;;
4704;SDS011;2366;51.332;6.610;2023-02-08T05:35:39;17.23;;;10.18;;
4704;SDS011;2366;51.332;6.610;2023-02-08T05:38:04;15.30;;;8.87;;
4704;SDS011;2366;51.332;6.610;2023-02-08T05:40:30;20.70;;;9.73;;
4704;SDS011;2366;51.332;6.610;2023-02-08T05:42:56;18.17;;;9.77;;
4704;SDS011;2366;51.332;6.610;2023-02-08T05:45:21;25.07;;;10.00;;
4704;SDS011;2366;51.332;6.610;2023-02-08T05:47:47;16.23;;;9.43;;
4704;SDS011;2366;51.332;6.610;2023-02-08T05:50:13;14.20;;;8.63;;
4704;SDS011;2366;51.332;6.610;2023-02-08T05:52:38;17.50;;;9.83;;
4704;SDS011;2366;51.332;6.610;2023-02-08T05:55:04;20.43;;;12.30;;
4704;SDS011;2366;51.332;6.610;2023-02-08T05:57:29;18.53;;;9.10;;
4704;SDS011;2366;51.332;6.610;2023-02-08T05:59:55;19.03;;;10.23;;
4704;SDS011;2366;51.332;6.610;2023-02-08T06:02:20;24.90;;;11.13;;
4704;SDS011;2366;51.332;6.610;2023-02-08T06:04:46;11.33;;;8.80;;
4704;SDS011;2366;51.332;6.610;2023-02-08T06:07:11;19.90;;;10.43;;
4704;SDS011;2366;51.332;6.610;2023-02-08T06:09:37;20.37;;;10.67;;
4704;SDS011;2366;51.332;6.610;2023-02-08T06:12:02;16.90;;;10.17;;
4704;SDS011;2366;51.332;6.610;2023-02-08T06:14:27;20.87;;;10.77;;
4704;SDS011;2366;51.332;6.610;2023-02-08T06:16:53;17.20;;;11.43;;
4704;SDS011;2366;51.332;6.610;2023-02-08T06:19:18;18.70;;;10.70;;
4704;SDS011;2366;51.332;6.610;2023-02-08T06:21:44;21.37;;;10.57;;
4704;SDS011;2366;51.332;6.610;2023-02-08T06:24:09;19.43;;;10.17;;
4704;SDS011;2366;51.332;6.610;2023-02-08T06:26:35;22.25;;;9.55;;
4704;SDS011;2366;51.332;6.610;2023-02-08T06:29:01;17.67;;;11.40;;
4704;SDS011;2366;51.332;6.610;2023-02-08T06:31:26;13.97;;;9.90;;
4704;SDS011;2366;51.332;6.610;2023-02-08T06:33:51;16.93;;;10.17;;
4704;SDS011;2366;51.332;6.610;2023-02-08T06:36:17;16.27;;;9.77;;
4704;SDS011;2366;51.332;6.610;2023-02-08T06:38:42;19.03;;;10.27;;
4704;SDS011;2366;51.332;6.610;2023-02-08T06:41:08;15.73;;;9.70;;
4704;SDS011;2366;51.332;6.610;2023-02-08T06:43:33;16.10;;;9.73;;
4704;SDS011;2366;51.332;6.610;2023-02-08T06:45:59;19.67;;;11.37;;
4704;SDS011;2366;51.332;6.610;2023-02-08T06:48:24;22.83;;;11.27;;
4704;SDS011;2366;51.332;6.610;2023-02-08T06:50:52;23.80;;;10.40;;
4704;SDS011;2366;51.332;6.610;2023-02-08T06:53:19;27.70;;;12.50;;
4704;SDS011;2366;51.332;6.610;2023-02-08T06:55:48;19.05;;;10.40;;
4704;SDS011;2366;51.332;6.610;2023-02-08T06:58:14;26.02;;;12.15;;
4704;SDS011;2366;51.332;6.610;2023-02-08T07:00:39;23.10;;;10.10;;
4704;SDS011;2366;51.332;6.610;2023-02-08T07:03:05;27.20;;;11.07;;
4704;SDS011;2366;51.332;6.610;2023-02-08T07:05:33;21.53;;;9.93;;
4704;SDS011;2366;51.332;6.610;2023-02-08T07:07:59;26.17;;;11.70;;
4704;SDS011;2366;51.332;6.610;2023-02-08T07:10:24;29.37;;;11.27;;
4704;SDS011;2366;51.332;6.610;2023-02-08T07:12:50;21.73;;;11.43;;
4704;SDS011;2366;51.332;6.610;2023-02-08T07:15:15;19.07;;;10.17;;
4704;SDS011;2366;51.332;6.610;2023-02-08T07:17:41;22.60;;;11.90;;
4704;SDS011;2366;51.332;6.610;2023-02-08T07:20:06;22.20;;;11.63;;
4704;SDS011;2366;51.332;6.610;2023-02-08T07:22:32;20.77;;;9.85;;
4704;SDS011;2366;51.332;6.610;2023-02-08T07:24:57;23.43;;;12.17;;
4704;SDS011;2366;51.332;6.610;2023-02-08T07:27:23;25.67;;;11.57;;
4704;SDS011;2366;51.332;6.610;2023-02-08T07:29:48;18.03;;;9.13;;
4704;SDS011;2366;51.332;6.610;2023-02-08T07:32:13;28.50;;;11.40;;
4704;SDS011;2366;51.332;6.610;2023-02-08T07:34:38;18.47;;;11.60;;
4704;SDS011;2366;51.332;6.610;2023-02-08T07:37:04;15.77;;;10.10;;
4704;SDS011;2366;51.332;6.610;2023-02-08T07:39:30;19.90;;;10.30;;
4704;SDS011;2366;51.332;6.610;2023-02-08T07:41:56;17.60;;;8.70;;
4704;SDS011;2366;51.332;6.610;2023-02-08T07:44:22;21.03;;;10.10;;
4704;SDS011;2366;51.332;6.610;2023-02-08T07:46:47;18.63;;;10.60;;
4704;SDS011;2366;51.332;6.610;2023-02-08T07:49:12;23.30;;;10.63;;
4704;SDS011;2366;51.332;6.610;2023-02-08T07:51:37;26.70;;;11.40;;
4704;SDS011;2366;51.332;6.610;2023-02-08T07:54:03;18.13;;;10.53;;
4704;SDS011;2366;51.332;6.610;2023-02-08T07:56:28;17.50;;;10.23;;
4704;SDS011;2366;51.332;6.610;2023-02-08T07:58:54;23.73;;;8.90;;
4704;SDS011;2366;51.332;6.610;2023-02-08T08:01:19;17.60;;;9.33;;
4704;SDS011;2366;51.332;6.610;2023-02-08T08:03:45;15.10;;;8.80;;
4704;SDS011;2366;51.332;6.610;2023-02-08T08:06:10;23.10;;;11.30;;
4704;SDS011;2366;51.332;6.610;2023-02-08T08:08:35;11.13;;;8.10;;
4704;SDS011;2366;51.332;6.610;2023-02-08T08:11:01;15.60;;;9.90;;
4704;SDS011;2366;51.332;6.610;2023-02-08T08:13:26;12.33;;;9.77;;
4704;SDS011;2366;51.332;6.610;2023-02-08T08:15:51;11.73;;;8.20;;
4704;SDS011;2366;51.332;6.610;2023-02-08T08:18:17;13.33;;;9.13;;
4704;SDS011;2366;51.332;6.610;2023-02-08T08:20:42;19.63;;;9.03;;
4704;SDS011;2366;51.332;6.610;2023-02-08T08:23:07;12.50;;;8.80;;
4704;SDS011;2366;51.332;6.610;2023-02-08T08:25:33;19.10;;;9.13;;
4704;SDS011;2366;51.332;6.610;2023-02-08T08:27:59;11.37;;;9.33;;
4704;SDS011;2366;51.332;6.610;2023-02-08T08:30:25;23.55;;;9.43;;
4704;SDS011;2366;51.332;6.610;2023-02-08T08:32:50;14.07;;;9.53;;
4704;SDS011;2366;51.332;6.610;2023-02-08T08:35:16;11.33;;;9.07;;
4704;SDS011;2366;51.332;6.610;2023-02-08T08:37:41;19.20;;;8.80;;
4704;SDS011;2366;51.332;6.610;2023-02-08T08:40:07;14.23;;;9.00;;
4704;SDS011;2366;51.332;6.610;2023-02-08T08:42:33;12.85;;;9.02;;
4704;SDS011;2366;51.332;6.610;2023-02-08T08:44:59;13.50;;;8.17;;
4704;SDS011;2366;51.332;6.610;2023-02-08T08:47:27;11.50;;;9.77;;
4704;SDS011;2366;51.332;6.610;2023-02-08T08:49:52;16.83;;;8.93;;
4704;SDS011;2366;51.332;6.610;2023-02-08T08:52:18;15.13;;;9.33;;
4704;SDS011;2366;51.332;6.610;2023-02-08T08:54:43;12.43;;;8.50;;
4704;SDS011;2366;51.332;6.610;2023-02-08T08:57:08;9.60;;;8.43;;
4704;SDS011;2366;51.332;6.610;2023-02-08T08:59:34;11.50;;;8.20;;
4704;SDS011;2366;51.332;6.610;2023-02-08T09:01:59;12.30;;;8.53;;
4704;SDS011;2366;51.332;6.610;2023-02-08T09:04:25;11.07;;;7.73;;
4704;SDS011;2366;51.332;6.610;2023-02-08T09:06:50;16.47;;;8.07;;
4704;SDS011;2366;51.332;6.610;2023-02-08T09:09:17;16.98;;;8.85;;
4704;SDS011;2366;51.332;6.610;2023-02-08T09:11:44;16.33;;;8.90;;
4704;SDS011;2366;51.332;6.610;2023-02-08T09:14:09;9.37;;;8.40;;
4704;SDS011;2366;51.332;6.610;2023-02-08T09:16:36;12.52;;;8.55;;
4704;SDS011;2366;51.332;6.610;2023-02-08T09:19:04;12.15;;;7.93;;
4704;SDS011;2366;51.332;6.610;2023-02-08T09:21:31;15.13;;;8.38;;
4704;SDS011;2366;51.332;6.610;2023-02-08T09:23:57;11.40;;;6.97;;
4704;SDS011;2366;51.332;6.610;2023-02-08T09:26:24;12.18;;;7.65;;
4704;SDS011;2366;51.332;6.610;2023-02-08T09:28:50;14.93;;;8.57;;
4704;SDS011;2366;51.332;6.610;2023-02-08T09:31:23;11.03;;;7.43;;
4704;SDS011;2366;51.332;6.610;2023-02-08T09:33:56;10.52;;;7.57;;
4704;SDS011;2366;51.332;6.610;2023-02-08T09:36:24;11.75;;;7.78;;
4704;SDS011;2366;51.332;6.610;2023-02-08T09:38:55;13.02;;;8.52;;
4704;SDS011;2366;51.332;6.610;2023-02-08T09:41:31;13.75;;;8.15;;
4704;SDS011;2366;51.332;6.610;2023-02-08T09:46:57;8.48;;;6.47;;
4704;SDS011;2366;51.332;6.610;2023-02-08T09:49:29;10.82;;;6.85;;
4704;SDS011;2366;51.332;6.610;2023-02-08T09:52:03;9.88;;;7.13;;
4704;SDS011;2366;51.332;6.610;2023-02-08T09:54:35;10.38;;;7.13;;
4704;SDS011;2366;51.332;6.610;2023-02-08T09:57:04;14.90;;;7.00;;
4704;SDS011;2366;51.332;6.610;2023-02-08T09:59:36;8.10;;;6.72;;
4704;SDS011;2366;51.332;6.610;2023-02-08T10:02:16;9.98;;;6.50;;
4704;SDS011;2366;51.332;6.610;2023-02-08T10:05:04;12.68;;;7.35;;
4704;SDS011;2366;51.332;6.610;2023-02-08T10:07:40;12.65;;;6.30;;
4704;SDS011;2366;51.332;6.610;2023-02-08T10:10:13;16.05;;;6.70;;
4704;SDS011;2366;51.332;6.610;2023-02-08T10:13:01;12.13;;;7.40;;
4704;SDS011;2366;51.332;6.610;2023-02-08T10:15:41;9.75;;;6.25;;
4704;SDS011;2366;51.332;6.610;2023-02-08T10:18:18;11.20;;;6.75;;
4704;SDS011;2366;51.332;6.610;2023-02-08T10:27:05;9.43;;;6.00;;
4704;SDS011;2366;51.332;6.610;2023-02-08T10:35:23;16.13;;;7.00;;
4704;SDS011;2366;51.332;6.610;2023-02-08T10:38:12;10.32;;;5.90;;
4704;SDS011;2366;51.332;6.610;2023-02-08T10:40:48;11.35;;;5.50;;
4704;SDS011;2366;51.332;6.610;2023-02-08T10:43:27;12.93;;;5.95;;
4704;SDS011;2366;51.332;6.610;2023-02-08T10:51:05;9.43;;;5.55;;
4704;SDS011;2366;51.332;6.610;2023-02-08T10:53:35;8.32;;;5.35;;
4704;SDS011;2366;51.332;6.610;2023-02-08T10:56:01;8.13;;;4.87;;
4704;SDS011;2366;51.332;6.610;2023-02-08T10:58:28;6.25;;;4.57;;
4704;SDS011;2366;51.332;6.610;2023-02-08T11:00:54;4.97;;;4.47;;
4704;SDS011;2366;51.332;6.610;2023-02-08T11:03:23;10.18;;;4.60;;
4704;SDS011;2366;51.332;6.610;2023-02-08T11:05:50;4.90;;;4.40;;
4704;SDS011;2366;51.332;6.610;2023-02-08T11:08:17;7.40;;;4.35;;
4704;SDS011;2366;51.332;6.610;2023-02-08T11:10:45;5.20;;;4.30;;
4704;SDS011;2366;51.332;6.610;2023-02-08T11:13:21;4.53;;;3.20;;
4704;SDS011;2366;51.332;6.610;2023-02-08T11:15:51;10.38;;;5.50;;
4704;SDS011;2366;51.332;6.610;2023-02-08T11:18:21;6.93;;;4.95;;
4704;SDS011;2366;51.332;6.610;2023-02-08T11:20:54;7.50;;;4.13;;
4704;SDS011;2366;51.332;6.610;2023-02-08T11:25:53;7.75;;;5.18;;
4704;SDS011;2366;51.332;6.610;2023-02-08T11:28:26;9.23;;;4.72;;
4704;SDS011;2366;51.332;6.610;2023-02-08T11:30:55;6.95;;;4.75;;
4704;SDS011;2366;51.332;6.610;2023-02-08T11:33:22;8.50;;;4.22;;
4704;SDS011;2366;51.332;6.610;2023-02-08T11:35:57;5.05;;;3.97;;
4704;SDS011;2366;51.332;6.610;2023-02-08T11:38:32;7.30;;;4.20;;
4704;SDS011;2366;51.332;6.610;2023-02-08T11:40:59;4.90;;;4.28;;
4704;SDS011;2366;51.332;6.610;2023-02-08T11:43:31;6.03;;;4.53;;
4704;SDS011;2366;51.332;6.610;2023-02-08T11:45:58;7.78;;;3.40;;
4704;SDS011;2366;51.332;6.610;2023-02-08T11:48:34;5.90;;;3.78;;
4704;SDS011;2366;51.332;6.610;2023-02-08T11:51:07;6.05;;;4.15;;
4704;SDS011;2366;51.332;6.610;2023-02-08T11:53:41;7.90;;;3.92;;
4704;SDS011;2366;51.332;6.610;2023-02-08T11:56:21;5.60;;;4.28;;
4704;SDS011;2366;51.332;6.610;2023-02-08T11:58:58;8.63;;;4.93;;
4704;SDS011;2366;51.332;6.610;2023-02-08T12:01:35;6.43;;;4.10;;
4704;SDS011;2366;51.332;6.610;2023-02-08T12:04:03;6.88;;;4.00;;
4704;SDS011;2366;51.332;6.610;2023-02-08T12:06:51;5.88;;;3.80;;
4704;SDS011;2366;51.332;6.610;2023-02-08T12:14:59;6.60;;;4.20;;
4704;SDS011;2366;51.332;6.610;2023-02-08T12:17:40;7.25;;;4.50;;
4704;SDS011;2366;51.332;6.610;2023-02-08T12:25:59;6.80;;;4.38;;
4704;SDS011;2366;51.332;6.610;2023-02-08T12:31:57;7.70;;;4.88;;
4704;SDS011;2366;51.332;6.610;2023-02-08T12:40:15;5.85;;;4.00;;
4704;SDS011;2366;51.332;6.610;2023-02-08T12:57:05;3.53;;;3.08;;
4704;SDS011;2366;51.332;6.610;2023-02-08T13:02:04;6.72;;;3.67;;
4704;SDS011;2366;51.332;6.610;2023-02-08T13:04:39;5.20;;;4.10;;
4704;SDS011;2366;51.332;6.610;2023-02-08T13:07:10;3.58;;;3.20;;
4704;SDS011;2366;51.332;6.610;2023-02-08T13:09:51;9.35;;;4.13;;
4704;SDS011;2366;51.332;6.610;2023-02-08T13:12:28;2.80;;;2.60;;
4704;SDS011;2366;51.332;6.610;2023-02-08T13:15:02;3.50;;;2.80;;
4704;SDS011;2366;51.332;6.610;2023-02-08T13:23:00;3.75;;;3.05;;
4704;SDS011;2366;51.332;6.610;2023-02-08T13:25:37;5.78;;;3.22;;
4704;SDS011;2366;51.332;6.610;2023-02-08T13:28:05;7.18;;;3.45;;
4704;SDS011;2366;51.332;6.610;2023-02-08T13:30:35;5.32;;;3.20;;
4704;SDS011;2366;51.332;6.610;2023-02-08T13:33:11;5.55;;;3.10;;
4704;SDS011;2366;51.332;6.610;2023-02-08T13:35:42;5.22;;;3.72;;
4704;SDS011;2366;51.332;6.610;2023-02-08T13:38:26;4.88;;;3.10;;
4704;SDS011;2366;51.332;6.610;2023-02-08T13:41:27;10.80;;;3.90;;
4704;SDS011;2366;51.332;6.610;2023-02-08T13:46:16;4.35;;;3.25;;
4704;SDS011;2366;51.332;6.610;2023-02-08T13:48:47;6.88;;;3.70;;
4704;SDS011;2366;51.332;6.610;2023-02-08T13:52:00;4.60;;;3.75;;
4704;SDS011;2366;51.332;6.610;2023-02-08T13:56:39;3.63;;;3.30;;
4704;SDS011;2366;51.332;6.610;2023-02-08T13:59:27;6.75;;;4.05;;
4704;SDS011;2366;51.332;6.610;2023-02-08T14:04:49;9.70;;;4.78;;
4704;SDS011;2366;51.332;6.610;2023-02-08T14:12:34;5.63;;;4.33;;
4704;SDS011;2366;51.332;6.610;2023-02-08T14:17:46;6.68;;;4.15;;
4704;SDS011;2366;51.332;6.610;2023-02-08T14:22:59;4.28;;;3.20;;
4704;SDS011;2366;51.332;6.610;2023-02-08T14:25:41;6.40;;;4.70;;
4704;SDS011;2366;51.332;6.610;2023-02-08T14:28:29;5.20;;;3.65;;
4704;SDS011;2366;51.332;6.610;2023-02-08T14:31:09;8.88;;;4.85;;
4704;SDS011;2366;51.332;6.610;2023-02-08T14:33:37;4.40;;;3.67;;
4704;SDS011;2366;51.332;6.610;2023-02-08T14:36:06;10.43;;;4.65;;
4704;SDS011;2366;51.332;6.610;2023-02-08T14:38:49;6.00;;;4.25;;
4704;SDS011;2366;51.332;6.610;2023-02-08T14:41:47;4.20;;;3.70;;
4704;SDS011;2366;51.332;6.610;2023-02-08T14:47:01;18.95;;;4.05;;
4704;SDS011;2366;51.332;6.610;2023-02-08T14:49:47;4.78;;;3.50;;
4704;SDS011;2366;51.332;6.610;2023-02-08T14:52:14;4.63;;;3.30;;
4704;SDS011;2366;51.332;6.610;2023-02-08T14:54:47;5.53;;;3.88;;
4704;SDS011;2366;51.332;6.610;2023-02-08T14:59:53;10.05;;;4.70;;
4704;SDS011;2366;51.332;6.610;2023-02-08T15:02:23;3.80;;;3.40;;
4704;SDS011;2366;51.332;6.610;2023-02-08T15:04:55;6.18;;;4.28;;
4704;SDS011;2366;51.332;6.610;2023-02-08T15:09:49;4.65;;;3.95;;
4704;SDS011;2366;51.332;6.610;2023-02-08T15:12:21;4.50;;;3.43;;
4704;SDS011;2366;51.332;6.610;2023-02-08T15:15:03;4.03;;;3.35;;
4704;SDS011;2366;51.332;6.610;2023-02-08T15:17:32;5.53;;;3.47;;
4704;SDS011;2366;51.332;6.610;2023-02-08T15:20:01;4.70;;;3.30;;
4704;SDS011;2366;51.332;6.610;2023-02-08T15:22:34;6.00;;;4.03;;
4704;SDS011;2366;51.332;6.610;2023-02-08T15:25:12;8.13;;;3.75;;
4704;SDS011;2366;51.332;6.610;2023-02-08T15:27:44;5.80;;;3.60;;
4704;SDS011;2366;51.332;6.610;2023-02-08T15:33:02;4.80;;;3.40;;
4704;SDS011;2366;51.332;6.610;2023-02-08T15:35:33;10.15;;;3.70;;
4704;SDS011;2366;51.332;6.610;2023-02-08T15:38:00;7.57;;;3.80;;
4704;SDS011;2366;51.332;6.610;2023-02-08T15:40:30;7.43;;;3.53;;
4704;SDS011;2366;51.332;6.610;2023-02-08T15:43:30;2.97;;;2.72;;
4704;SDS011;2366;51.332;6.610;2023-02-08T15:45:55;7.03;;;4.03;;
4704;SDS011;2366;51.332;6.610;2023-02-08T15:48:25;7.03;;;2.95;;
4704;SDS011;2366;51.332;6.610;2023-02-08T15:50:52;3.67;;;2.90;;
4704;SDS011;2366;51.332;6.610;2023-02-08T15:53:18;14.30;;;3.60;;
4704;SDS011;2366;51.332;6.610;2023-02-08T15:56:02;6.32;;;3.50;;
4704;SDS011;2366;51.332;6.610;2023-02-08T15:58:30;4.07;;;3.13;;
4704;SDS011;2366;51.332;6.610;2023-02-08T16:01:00;6.10;;;3.55;;
4704;SDS011;2366;51.332;6.610;2023-02-08T16:03:27;5.85;;;3.45;;
4704;SDS011;2366;51.332;6.610;2023-02-08T16:05:55;6.70;;;3.15;;
4704;SDS011;2366;51.332;6.610;2023-02-08T16:08:25;5.55;;;4.00;;
4704;SDS011;2366;51.332;6.610;2023-02-08T16:10:56;3.17;;;2.88;;
4704;SDS011;2366;51.332;6.610;2023-02-08T16:13:35;2.65;;;2.45;;
4704;SDS011;2366;51.332;6.610;2023-02-08T16:16:19;6.05;;;2.50;;
4704;SDS011;2366;51.332;6.610;2023-02-08T16:18:57;5.07;;;3.17;;
4704;SDS011;2366;51.332;6.610;2023-02-08T16:23:50;5.90;;;3.27;;
4704;SDS011;2366;51.332;6.610;2023-02-08T16:26:20;4.55;;;3.60;;
4704;SDS011;2366;51.332;6.610;2023-02-08T16:28:52;5.40;;;3.13;;
4704;SDS011;2366;51.332;6.610;2023-02-08T16:31:22;4.40;;;3.55;;
4704;SDS011;2366;51.332;6.610;2023-02-08T16:33:56;5.63;;;2.70;;
4704;SDS011;2366;51.332;6.610;2023-02-08T16:36:46;7.60;;;3.45;;
4704;SDS011;2366;51.332;6.610;2023-02-08T16:44:25;6.82;;;4.00;;
4704;SDS011;2366;51.332;6.610;2023-02-08T16:46:56;5.65;;;3.47;;
4704;SDS011;2366;51.332;6.610;2023-02-08T16:49:22;5.20;;;3.92;;
4704;SDS011;2366;51.332;6.610;2023-02-08T16:51:47;8.30;;;5.00;;
4704;SDS011;2366;51.332;6.610;2023-02-08T16:54:15;6.10;;;4.70;;
4704;SDS011;2366;51.332;6.610;2023-02-08T16:56:43;8.85;;;4.35;;
4704;SDS011;2366;51.332;6.610;2023-02-08T16:59:14;8.70;;;3.90;;
4704;SDS011;2366;51.332;6.610;2023-02-08T17:01:40;12.02;;;5.65;;
4704;SDS011;2366;51.332;6.610;2023-02-08T17:04:12;8.23;;;5.55;;
4704;SDS011;2366;51.332;6.610;2023-02-08T17:06:37;13.83;;;4.20;;
4704;SDS011;2366;51.332;6.610;2023-02-08T17:09:06;5.07;;;4.45;;
4704;SDS011;2366;51.332;6.610;2023-02-08T17:11:33;18.13;;;9.20;;
4704;SDS011;2366;51.332;6.610;2023-02-08T17:13:59;13.45;;;8.20;;
4704;SDS011;2366;51.332;6.610;2023-02-08T17:16:27;16.63;;;8.53;;
4704;SDS011;2366;51.332;6.610;2023-02-08T17:18:53;9.98;;;6.72;;
4704;SDS011;2366;51.332;6.610;2023-02-08T17:21:20;11.48;;;7.93;;
4704;SDS011;2366;51.332;6.610;2023-02-08T17:23:45;12.30;;;7.93;;